Terminal Aerodrome Forecast
Issued by NWS Blacksburg, VA

Home | Current Version | Previous Version | Text Only | Print | Product List | Glossary On
Versions: 1 2 3 4 5 6 7 8 9 10 11 12 13 14 15 16 17 18 19 20 21 22 23 24 25 26 27 28 29 30 31 32 33 34 35 36 37
000
FTUS41 KRNK 251139
TAFROA
TAF
KROA 251139Z 2512/2612 23004KT P6SM BKN040
     FM251900 16006KT P6SM BKN150
     FM260200 13004KT P6SM OVC025
     FM260700 VRB03KT 3SM -RA BR OVC012=

USA.gov is the U.S. government's official web portal to all federal, state and local government web resources and services.